sensor_id;sensor_type;location;lat;lon;timestamp;P1;durP1;ratioP1;P2;durP2;ratioP2
974;SDS011;6115;49.296;10.602;2024-03-23T00:54:51;72.37;;;12.00;;
974;SDS011;6115;49.296;10.602;2024-03-23T00:59:52;71.30;;;10.73;;
974;SDS011;6115;49.296;10.602;2024-03-23T01:04:52;75.50;;;12.00;;
974;SDS011;6115;49.296;10.602;2024-03-23T01:09:53;77.20;;;11.33;;
974;SDS011;6115;49.296;10.602;2024-03-23T01:14:53;71.93;;;12.00;;
974;SDS011;6115;49.296;10.602;2024-03-23T01:19:54;71.90;;;11.47;;
974;SDS011;6115;49.296;10.602;2024-03-23T01:24:54;71.90;;;11.90;;
974;SDS011;6115;49.296;10.602;2024-03-23T01:29:55;71.77;;;11.30;;
974;SDS011;6115;49.296;10.602;2024-03-23T01:34:55;71.47;;;12.13;;
974;SDS011;6115;49.296;10.602;2024-03-23T01:39:56;70.90;;;11.50;;
974;SDS011;6115;49.296;10.602;2024-03-23T01:44:56;71.00;;;10.63;;
974;SDS011;6115;49.296;10.602;2024-03-23T01:49:57;70.90;;;11.43;;
974;SDS011;6115;49.296;10.602;2024-03-23T01:54:57;72.40;;;12.40;;
974;SDS011;6115;49.296;10.602;2024-03-23T01:59:58;71.77;;;12.10;;
974;SDS011;6115;49.296;10.602;2024-03-23T02:04:58;75.80;;;13.07;;
974;SDS011;6115;49.296;10.602;2024-03-23T02:09:59;74.67;;;13.37;;
974;SDS011;6115;49.296;10.602;2024-03-23T02:15:00;73.07;;;12.83;;
974;SDS011;6115;49.296;10.602;2024-03-23T02:20:02;73.67;;;11.83;;
974;SDS011;6115;49.296;10.602;2024-03-23T02:25:03;71.17;;;12.07;;
974;SDS011;6115;49.296;10.602;2024-03-23T02:30:05;70.53;;;11.57;;
974;SDS011;6115;49.296;10.602;2024-03-23T02:35:06;74.37;;;11.57;;
974;SDS011;6115;49.296;10.602;2024-03-23T02:40:07;71.93;;;12.17;;
974;SDS011;6115;49.296;10.602;2024-03-23T02:45:08;71.47;;;11.90;;
974;SDS011;6115;49.296;10.602;2024-03-23T02:50:09;78.43;;;13.87;;
974;SDS011;6115;49.296;10.602;2024-03-23T02:55:09;70.47;;;11.10;;
974;SDS011;6115;49.296;10.602;2024-03-23T03:00:10;81.40;;;12.93;;
974;SDS011;6115;49.296;10.602;2024-03-23T03:05:12;73.47;;;12.57;;
974;SDS011;6115;49.296;10.602;2024-03-23T03:10:14;71.83;;;11.90;;
974;SDS011;6115;49.296;10.602;2024-03-23T03:15:14;71.37;;;12.10;;
974;SDS011;6115;49.296;10.602;2024-03-23T03:20:15;73.40;;;13.77;;
974;SDS011;6115;49.296;10.602;2024-03-23T03:25:17;71.00;;;11.97;;
974;SDS011;6115;49.296;10.602;2024-03-23T03:30:18;74.50;;;12.73;;
974;SDS011;6115;49.296;10.602;2024-03-23T03:35:18;74.10;;;14.10;;
974;SDS011;6115;49.296;10.602;2024-03-23T03:40:19;75.47;;;13.77;;
974;SDS011;6115;49.296;10.602;2024-03-23T03:45:19;72.70;;;12.43;;
974;SDS011;6115;49.296;10.602;2024-03-23T03:50:21;74.97;;;13.33;;
974;SDS011;6115;49.296;10.602;2024-03-23T03:55:22;70.40;;;11.83;;
974;SDS011;6115;49.296;10.602;2024-03-23T04:00:22;74.17;;;12.30;;
974;SDS011;6115;49.296;10.602;2024-03-23T04:05:23;72.90;;;13.53;;
974;SDS011;6115;49.296;10.602;2024-03-23T04:10:24;75.73;;;15.23;;
974;SDS011;6115;49.296;10.602;2024-03-23T04:15:24;73.17;;;13.40;;
974;SDS011;6115;49.296;10.602;2024-03-23T04:20:25;73.67;;;14.20;;
974;SDS011;6115;49.296;10.602;2024-03-23T04:25:26;75.60;;;16.27;;
974;SDS011;6115;49.296;10.602;2024-03-23T04:30:26;76.43;;;14.33;;
974;SDS011;6115;49.296;10.602;2024-03-23T04:35:29;71.37;;;12.90;;
974;SDS011;6115;49.296;10.602;2024-03-23T04:40:29;72.43;;;13.07;;
974;SDS011;6115;49.296;10.602;2024-03-23T04:45:30;69.80;;;12.00;;
974;SDS011;6115;49.296;10.602;2024-03-23T04:50:30;72.23;;;13.97;;
974;SDS011;6115;49.296;10.602;2024-03-23T04:55:31;70.70;;;12.40;;
974;SDS011;6115;49.296;10.602;2024-03-23T05:00:31;71.23;;;12.00;;
974;SDS011;6115;49.296;10.602;2024-03-23T05:05:32;71.00;;;12.90;;
974;SDS011;6115;49.296;10.602;2024-03-23T05:10:33;70.53;;;12.80;;
974;SDS011;6115;49.296;10.602;2024-03-23T05:15:34;70.80;;;12.10;;
974;SDS011;6115;49.296;10.602;2024-03-23T05:20:34;70.20;;;12.23;;
974;SDS011;6115;49.296;10.602;2024-03-23T05:25:35;71.60;;;13.33;;
974;SDS011;6115;49.296;10.602;2024-03-23T05:30:36;72.53;;;13.10;;
974;SDS011;6115;49.296;10.602;2024-03-23T05:35:43;71.57;;;13.50;;
974;SDS011;6115;49.296;10.602;2024-03-23T05:40:52;73.30;;;14.33;;
974;SDS011;6115;49.296;10.602;2024-03-23T05:45:56;72.77;;;17.07;;
974;SDS011;6115;49.296;10.602;2024-03-23T05:50:57;72.30;;;16.40;;
974;SDS011;6115;49.296;10.602;2024-03-23T05:56:02;74.00;;;15.73;;
974;SDS011;6115;49.296;10.602;2024-03-23T06:01:06;71.93;;;13.53;;
974;SDS011;6115;49.296;10.602;2024-03-23T06:06:07;75.07;;;14.00;;
974;SDS011;6115;49.296;10.602;2024-03-23T06:11:11;75.13;;;15.63;;
974;SDS011;6115;49.296;10.602;2024-03-23T06:16:12;74.60;;;15.20;;
974;SDS011;6115;49.296;10.602;2024-03-23T06:21:13;73.67;;;14.57;;
974;SDS011;6115;49.296;10.602;2024-03-23T06:26:14;75.17;;;15.67;;
974;SDS011;6115;49.296;10.602;2024-03-23T06:31:14;75.43;;;17.20;;
974;SDS011;6115;49.296;10.602;2024-03-23T06:36:16;75.63;;;19.00;;
974;SDS011;6115;49.296;10.602;2024-03-23T06:41:16;75.47;;;20.10;;
974;SDS011;6115;49.296;10.602;2024-03-23T06:46:17;75.97;;;19.73;;
974;SDS011;6115;49.296;10.602;2024-03-23T06:51:18;75.37;;;19.13;;
974;SDS011;6115;49.296;10.602;2024-03-23T06:56:18;75.93;;;20.17;;
974;SDS011;6115;49.296;10.602;2024-03-23T07:01:19;74.67;;;19.73;;
974;SDS011;6115;49.296;10.602;2024-03-23T07:06:19;75.87;;;21.10;;
974;SDS011;6115;49.296;10.602;2024-03-23T07:11:23;73.87;;;19.33;;
974;SDS011;6115;49.296;10.602;2024-03-23T07:16:24;73.00;;;17.80;;
974;SDS011;6115;49.296;10.602;2024-03-23T07:21:27;74.60;;;19.50;;
974;SDS011;6115;49.296;10.602;2024-03-23T07:26:27;77.67;;;20.10;;
974;SDS011;6115;49.296;10.602;2024-03-23T07:31:28;75.03;;;21.43;;
974;SDS011;6115;49.296;10.602;2024-03-23T07:36:28;75.47;;;21.40;;
974;SDS011;6115;49.296;10.602;2024-03-23T07:41:29;76.00;;;21.80;;
974;SDS011;6115;49.296;10.602;2024-03-23T07:46:30;74.87;;;22.67;;
974;SDS011;6115;49.296;10.602;2024-03-23T07:51:31;78.43;;;30.40;;
974;SDS011;6115;49.296;10.602;2024-03-23T07:56:33;78.73;;;26.17;;
974;SDS011;6115;49.296;10.602;2024-03-23T08:01:33;73.37;;;19.90;;
974;SDS011;6115;49.296;10.602;2024-03-23T08:06:34;74.47;;;22.93;;
974;SDS011;6115;49.296;10.602;2024-03-23T08:11:35;73.93;;;20.87;;
974;SDS011;6115;49.296;10.602;2024-03-23T08:16:35;72.97;;;20.63;;
974;SDS011;6115;49.296;10.602;2024-03-23T08:21:35;73.20;;;19.50;;
974;SDS011;6115;49.296;10.602;2024-03-23T08:26:36;75.57;;;23.30;;
974;SDS011;6115;49.296;10.602;2024-03-23T08:31:37;72.10;;;16.70;;
974;SDS011;6115;49.296;10.602;2024-03-23T08:36:38;73.53;;;18.30;;
974;SDS011;6115;49.296;10.602;2024-03-23T08:41:38;76.80;;;23.90;;
974;SDS011;6115;49.296;10.602;2024-03-23T08:46:39;74.20;;;18.67;;
974;SDS011;6115;49.296;10.602;2024-03-23T08:51:39;87.30;;;32.80;;
974;SDS011;6115;49.296;10.602;2024-03-23T08:56:40;74.57;;;20.33;;
974;SDS011;6115;49.296;10.602;2024-03-23T09:01:40;72.97;;;18.10;;
974;SDS011;6115;49.296;10.602;2024-03-23T09:06:44;73.40;;;18.40;;
974;SDS011;6115;49.296;10.602;2024-03-23T09:11:44;82.43;;;30.43;;
974;SDS011;6115;49.296;10.602;2024-03-23T09:16:45;72.77;;;17.23;;
974;SDS011;6115;49.296;10.602;2024-03-23T09:21:45;73.53;;;19.33;;
974;SDS011;6115;49.296;10.602;2024-03-23T09:26:46;73.77;;;22.10;;
974;SDS011;6115;49.296;10.602;2024-03-23T09:31:47;73.57;;;19.97;;
974;SDS011;6115;49.296;10.602;2024-03-23T09:36:50;70.90;;;16.80;;
974;SDS011;6115;49.296;10.602;2024-03-23T09:41:56;70.90;;;16.13;;
974;SDS011;6115;49.296;10.602;2024-03-23T09:46:56;72.53;;;16.90;;
974;SDS011;6115;49.296;10.602;2024-03-23T09:51:57;83.30;;;15.77;;
974;SDS011;6115;49.296;10.602;2024-03-23T09:56:58;70.40;;;14.43;;
974;SDS011;6115;49.296;10.602;2024-03-23T10:01:59;72.83;;;18.60;;
974;SDS011;6115;49.296;10.602;2024-03-23T10:07:10;70.17;;;13.60;;
974;SDS011;6115;49.296;10.602;2024-03-23T10:12:17;71.77;;;16.20;;
974;SDS011;6115;49.296;10.602;2024-03-23T10:17:22;70.70;;;13.87;;
974;SDS011;6115;49.296;10.602;2024-03-23T10:22:24;70.47;;;14.03;;
974;SDS011;6115;49.296;10.602;2024-03-23T10:27:24;72.40;;;17.93;;
974;SDS011;6115;49.296;10.602;2024-03-23T10:32:25;69.77;;;13.10;;
974;SDS011;6115;49.296;10.602;2024-03-23T10:37:27;69.47;;;12.90;;
974;SDS011;6115;49.296;10.602;2024-03-23T10:42:27;69.87;;;13.57;;
974;SDS011;6115;49.296;10.602;2024-03-23T10:47:28;69.80;;;12.93;;
974;SDS011;6115;49.296;10.602;2024-03-23T10:52:29;71.97;;;15.13;;
974;SDS011;6115;49.296;10.602;2024-03-23T10:57:31;69.67;;;13.50;;
974;SDS011;6115;49.296;10.602;2024-03-23T11:02:40;75.70;;;19.07;;
974;SDS011;6115;49.296;10.602;2024-03-23T11:07:40;68.83;;;11.57;;
974;SDS011;6115;49.296;10.602;2024-03-23T11:12:50;69.67;;;12.60;;
974;SDS011;6115;49.296;10.602;2024-03-23T11:18:03;72.47;;;14.50;;
974;SDS011;6115;49.296;10.602;2024-03-23T11:23:27;71.10;;;12.90;;
974;SDS011;6115;49.296;10.602;2024-03-23T11:28:28;69.23;;;13.13;;
974;SDS011;6115;49.296;10.602;2024-03-23T11:33:28;70.53;;;14.90;;
974;SDS011;6115;49.296;10.602;2024-03-23T11:38:29;67.77;;;10.43;;
974;SDS011;6115;49.296;10.602;2024-03-23T11:43:36;67.97;;;10.10;;
974;SDS011;6115;49.296;10.602;2024-03-23T11:48:39;69.13;;;11.17;;
974;SDS011;6115;49.296;10.602;2024-03-23T11:53:40;68.07;;;10.60;;
974;SDS011;6115;49.296;10.602;2024-03-23T11:58:40;67.67;;;9.33;;
974;SDS011;6115;49.296;10.602;2024-03-23T12:03:43;69.97;;;9.30;;
974;SDS011;6115;49.296;10.602;2024-03-23T12:08:44;67.97;;;9.70;;
974;SDS011;6115;49.296;10.602;2024-03-23T12:13:45;67.50;;;9.60;;
974;SDS011;6115;49.296;10.602;2024-03-23T12:18:50;69.40;;;10.27;;
974;SDS011;6115;49.296;10.602;2024-03-23T12:23:54;67.77;;;9.77;;
974;SDS011;6115;49.296;10.602;2024-03-23T12:28:55;69.67;;;9.90;;
974;SDS011;6115;49.296;10.602;2024-03-23T12:33:55;68.50;;;10.60;;
974;SDS011;6115;49.296;10.602;2024-03-23T12:38:56;70.70;;;11.10;;
974;SDS011;6115;49.296;10.602;2024-03-23T12:43:56;73.63;;;12.70;;
974;SDS011;6115;49.296;10.602;2024-03-23T12:48:57;69.60;;;9.70;;
974;SDS011;6115;49.296;10.602;2024-03-23T12:53:58;69.37;;;9.23;;
974;SDS011;6115;49.296;10.602;2024-03-23T12:58:58;67.67;;;9.60;;
974;SDS011;6115;49.296;10.602;2024-03-23T13:03:59;66.77;;;9.50;;
974;SDS011;6115;49.296;10.602;2024-03-23T13:09:01;68.30;;;9.97;;
974;SDS011;6115;49.296;10.602;2024-03-23T13:14:03;67.90;;;9.60;;
974;SDS011;6115;49.296;10.602;2024-03-23T13:19:04;67.00;;;9.60;;
974;SDS011;6115;49.296;10.602;2024-03-23T13:24:04;67.97;;;10.27;;
974;SDS011;6115;49.296;10.602;2024-03-23T13:29:05;66.77;;;9.43;;
974;SDS011;6115;49.296;10.602;2024-03-23T13:34:06;67.30;;;9.33;;
974;SDS011;6115;49.296;10.602;2024-03-23T13:39:06;67.07;;;9.30;;
974;SDS011;6115;49.296;10.602;2024-03-23T13:44:14;66.80;;;9.23;;
974;SDS011;6115;49.296;10.602;2024-03-23T13:49:27;67.37;;;9.67;;
974;SDS011;6115;49.296;10.602;2024-03-23T13:54:29;66.53;;;8.93;;
974;SDS011;6115;49.296;10.602;2024-03-23T13:59:30;67.50;;;9.43;;
974;SDS011;6115;49.296;10.602;2024-03-23T14:04:30;67.50;;;9.20;;
974;SDS011;6115;49.296;10.602;2024-03-23T14:09:31;68.80;;;10.20;;
974;SDS011;6115;49.296;10.602;2024-03-23T14:14:32;67.43;;;9.90;;
974;SDS011;6115;49.296;10.602;2024-03-23T14:19:33;66.77;;;8.90;;
974;SDS011;6115;49.296;10.602;2024-03-23T14:24:33;68.23;;;10.20;;
974;SDS011;6115;49.296;10.602;2024-03-23T14:29:34;69.17;;;12.00;;
974;SDS011;6115;49.296;10.602;2024-03-23T14:34:35;67.77;;;9.93;;
974;SDS011;6115;49.296;10.602;2024-03-23T14:39:36;67.90;;;10.83;;
974;SDS011;6115;49.296;10.602;2024-03-23T14:44:39;68.77;;;10.23;;
974;SDS011;6115;49.296;10.602;2024-03-23T14:49:39;71.87;;;10.67;;
974;SDS011;6115;49.296;10.602;2024-03-23T14:54:40;69.10;;;10.10;;
974;SDS011;6115;49.296;10.602;2024-03-23T14:59:40;69.60;;;10.50;;
974;SDS011;6115;49.296;10.602;2024-03-23T15:04:41;70.00;;;10.57;;
974;SDS011;6115;49.296;10.602;2024-03-23T15:09:41;69.67;;;10.20;;
974;SDS011;6115;49.296;10.602;2024-03-23T15:14:42;71.87;;;11.20;;
974;SDS011;6115;49.296;10.602;2024-03-23T15:19:43;72.87;;;14.97;;
974;SDS011;6115;49.296;10.602;2024-03-23T15:24:43;74.80;;;13.70;;
974;SDS011;6115;49.296;10.602;2024-03-23T15:29:44;71.47;;;13.93;;
974;SDS011;6115;49.296;10.602;2024-03-23T15:34:46;70.67;;;14.30;;
974;SDS011;6115;49.296;10.602;2024-03-23T15:39:46;71.97;;;15.40;;
974;SDS011;6115;49.296;10.602;2024-03-23T15:44:47;81.40;;;15.13;;
974;SDS011;6115;49.296;10.602;2024-03-23T15:49:47;70.60;;;14.17;;
974;SDS011;6115;49.296;10.602;2024-03-23T15:54:48;70.87;;;13.97;;
974;SDS011;6115;49.296;10.602;2024-03-23T15:59:48;72.40;;;15.67;;
974;SDS011;6115;49.296;10.602;2024-03-23T16:04:49;73.20;;;16.50;;
974;SDS011;6115;49.296;10.602;2024-03-23T16:09:49;70.67;;;14.10;;
974;SDS011;6115;49.296;10.602;2024-03-23T16:14:50;70.77;;;14.43;;
974;SDS011;6115;49.296;10.602;2024-03-23T16:19:50;70.70;;;14.23;;
974;SDS011;6115;49.296;10.602;2024-03-23T16:24:51;70.33;;;14.23;;
974;SDS011;6115;49.296;10.602;2024-03-23T16:29:51;70.87;;;13.93;;
974;SDS011;6115;49.296;10.602;2024-03-23T16:34:52;70.73;;;13.23;;
974;SDS011;6115;49.296;10.602;2024-03-23T16:39:52;70.50;;;13.23;;
974;SDS011;6115;49.296;10.602;2024-03-23T16:44:53;70.00;;;12.77;;
974;SDS011;6115;49.296;10.602;2024-03-23T16:49:53;71.20;;;13.40;;
974;SDS011;6115;49.296;10.602;2024-03-23T16:54:54;69.80;;;12.50;;
974;SDS011;6115;49.296;10.602;2024-03-23T16:59:54;72.73;;;14.70;;
974;SDS011;6115;49.296;10.602;2024-03-23T17:04:55;70.57;;;12.93;;
974;SDS011;6115;49.296;10.602;2024-03-23T17:09:55;70.17;;;12.90;;
974;SDS011;6115;49.296;10.602;2024-03-23T17:14:56;71.00;;;13.80;;
974;SDS011;6115;49.296;10.602;2024-03-23T17:20:00;71.30;;;13.73;;
974;SDS011;6115;49.296;10.602;2024-03-23T17:25:01;70.50;;;12.40;;
974;SDS011;6115;49.296;10.602;2024-03-23T17:30:01;72.47;;;14.90;;
974;SDS011;6115;49.296;10.602;2024-03-23T17:35:02;71.27;;;13.30;;
974;SDS011;6115;49.296;10.602;2024-03-23T17:40:03;70.77;;;13.07;;
974;SDS011;6115;49.296;10.602;2024-03-23T17:45:07;69.67;;;12.10;;
974;SDS011;6115;49.296;10.602;2024-03-23T17:50:08;72.83;;;13.40;;
974;SDS011;6115;49.296;10.602;2024-03-23T17:55:09;69.90;;;12.10;;
974;SDS011;6115;49.296;10.602;2024-03-23T18:00:10;70.80;;;12.67;;
974;SDS011;6115;49.296;10.602;2024-03-23T18:05:12;73.30;;;14.10;;
974;SDS011;6115;49.296;10.602;2024-03-23T18:10:12;69.97;;;12.00;;
974;SDS011;6115;49.296;10.602;2024-03-23T18:15:13;75.40;;;12.90;;
974;SDS011;6115;49.296;10.602;2024-03-23T18:20:14;71.27;;;12.67;;
974;SDS011;6115;49.296;10.602;2024-03-23T18:25:14;71.50;;;12.97;;
974;SDS011;6115;49.296;10.602;2024-03-23T18:30:15;70.93;;;13.30;;
974;SDS011;6115;49.296;10.602;2024-03-23T18:35:15;72.80;;;15.73;;
974;SDS011;6115;49.296;10.602;2024-03-23T18:40:16;75.20;;;20.90;;
974;SDS011;6115;49.296;10.602;2024-03-23T18:45:17;74.17;;;19.20;;
974;SDS011;6115;49.296;10.602;2024-03-23T18:50:18;74.07;;;18.90;;
974;SDS011;6115;49.296;10.602;2024-03-23T18:55:19;73.67;;;18.20;;
974;SDS011;6115;49.296;10.602;2024-03-23T19:00:21;74.40;;;20.07;;
974;SDS011;6115;49.296;10.602;2024-03-23T19:05:21;76.60;;;21.13;;
974;SDS011;6115;49.296;10.602;2024-03-23T19:10:22;74.50;;;20.40;;
974;SDS011;6115;49.296;10.602;2024-03-23T19:15:22;74.40;;;20.10;;
974;SDS011;6115;49.296;10.602;2024-03-23T19:20:23;74.80;;;21.33;;
974;SDS011;6115;49.296;10.602;2024-03-23T19:25:23;75.03;;;21.20;;
974;SDS011;6115;49.296;10.602;2024-03-23T19:30:24;75.40;;;22.10;;
974;SDS011;6115;49.296;10.602;2024-03-23T19:35:25;75.37;;;22.50;;
974;SDS011;6115;49.296;10.602;2024-03-23T19:40:26;75.97;;;22.73;;
974;SDS011;6115;49.296;10.602;2024-03-23T19:45:26;75.77;;;23.70;;
974;SDS011;6115;49.296;10.602;2024-03-23T19:50:29;75.17;;;21.83;;
974;SDS011;6115;49.296;10.602;2024-03-23T19:55:30;77.70;;;23.80;;
974;SDS011;6115;49.296;10.602;2024-03-23T20:00:32;76.20;;;23.23;;
974;SDS011;6115;49.296;10.602;2024-03-23T20:05:33;77.57;;;25.17;;
974;SDS011;6115;49.296;10.602;2024-03-23T20:10:34;75.37;;;22.67;;
974;SDS011;6115;49.296;10.602;2024-03-23T20:15:34;75.87;;;23.50;;
974;SDS011;6115;49.296;10.602;2024-03-23T20:20:35;78.10;;;24.23;;
974;SDS011;6115;49.296;10.602;2024-03-23T20:25:35;77.07;;;24.60;;
974;SDS011;6115;49.296;10.602;2024-03-23T20:30:36;76.77;;;24.60;;
974;SDS011;6115;49.296;10.602;2024-03-23T20:35:36;75.97;;;24.70;;
974;SDS011;6115;49.296;10.602;2024-03-23T20:40:45;78.07;;;27.00;;
974;SDS011;6115;49.296;10.602;2024-03-23T20:45:45;77.83;;;26.60;;
974;SDS011;6115;49.296;10.602;2024-03-23T20:50:46;77.10;;;26.10;;
974;SDS011;6115;49.296;10.602;2024-03-23T20:55:56;77.80;;;27.50;;
974;SDS011;6115;49.296;10.602;2024-03-23T21:01:00;77.27;;;26.30;;
974;SDS011;6115;49.296;10.602;2024-03-23T21:06:02;77.50;;;27.73;;
974;SDS011;6115;49.296;10.602;2024-03-23T21:11:03;78.20;;;28.33;;
974;SDS011;6115;49.296;10.602;2024-03-23T21:16:04;78.37;;;28.83;;
974;SDS011;6115;49.296;10.602;2024-03-23T21:21:05;78.20;;;29.17;;
974;SDS011;6115;49.296;10.602;2024-03-23T21:26:08;78.87;;;30.20;;
974;SDS011;6115;49.296;10.602;2024-03-23T21:31:09;78.77;;;29.27;;
974;SDS011;6115;49.296;10.602;2024-03-23T21:36:10;78.40;;;29.43;;
974;SDS011;6115;49.296;10.602;2024-03-23T21:41:10;78.70;;;30.43;;
974;SDS011;6115;49.296;10.602;2024-03-23T21:46:11;79.67;;;31.63;;
974;SDS011;6115;49.296;10.602;2024-03-23T21:51:12;79.73;;;31.67;;
974;SDS011;6115;49.296;10.602;2024-03-23T21:56:13;80.87;;;32.37;;
974;SDS011;6115;49.296;10.602;2024-03-23T22:01:13;79.97;;;32.87;;
974;SDS011;6115;49.296;10.602;2024-03-23T22:06:17;80.57;;;33.50;;
974;SDS011;6115;49.296;10.602;2024-03-23T22:11:18;80.10;;;34.17;;
974;SDS011;6115;49.296;10.602;2024-03-23T22:16:18;81.23;;;33.33;;
974;SDS011;6115;49.296;10.602;2024-03-23T22:21:19;78.67;;;29.47;;
974;SDS011;6115;49.296;10.602;2024-03-23T22:26:19;78.30;;;29.80;;
974;SDS011;6115;49.296;10.602;2024-03-23T22:31:20;79.17;;;31.60;;
974;SDS011;6115;49.296;10.602;2024-03-23T22:36:20;78.20;;;29.40;;
974;SDS011;6115;49.296;10.602;2024-03-23T22:41:22;79.10;;;31.10;;
974;SDS011;6115;49.296;10.602;2024-03-23T22:46:22;77.37;;;27.80;;
974;SDS011;6115;49.296;10.602;2024-03-23T22:51:23;77.57;;;28.37;;
974;SDS011;6115;49.296;10.602;2024-03-23T22:56:23;78.10;;;29.70;;
974;SDS011;6115;49.296;10.602;2024-03-23T23:01:24;77.87;;;28.63;;
974;SDS011;6115;49.296;10.602;2024-03-23T23:06:24;78.77;;;28.60;;
974;SDS011;6115;49.296;10.602;2024-03-23T23:11:25;76.20;;;26.30;;
974;SDS011;6115;49.296;10.602;2024-03-23T23:16:25;77.37;;;27.97;;
974;SDS011;6115;49.296;10.602;2024-03-23T23:21:26;77.07;;;26.80;;
974;SDS011;6115;49.296;10.602;2024-03-23T23:26:27;76.73;;;25.80;;
974;SDS011;6115;49.296;10.602;2024-03-23T23:31:27;77.40;;;28.17;;
974;SDS011;6115;49.296;10.602;2024-03-23T23:36:28;77.10;;;27.10;;
974;SDS011;6115;49.296;10.602;2024-03-23T23:41:29;76.30;;;25.67;;
974;SDS011;6115;49.296;10.602;2024-03-23T23:46:29;79.00;;;24.63;;
974;SDS011;6115;49.296;10.602;2024-03-23T23:51:30;76.43;;;25.77;;
974;SDS011;6115;49.296;10.602;2024-03-23T23:56:30;75.63;;;24.13;;
